sensor_id;sensor_type;location;lat;lon;timestamp;temperature;humidity
14555;DHT22;7364;50.870;4.722;2022-12-20T00:00:20;12.30;99.90
14555;DHT22;7364;50.870;4.722;2022-12-20T00:02:47;12.40;99.90
14555;DHT22;7364;50.870;4.722;2022-12-20T00:05:16;12.40;99.90
14555;DHT22;7364;50.870;4.722;2022-12-20T00:07:43;12.30;99.90
14555;DHT22;7364;50.870;4.722;2022-12-20T00:10:10;12.30;99.90
14555;DHT22;7364;50.870;4.722;2022-12-20T00:12:38;12.40;99.90
14555;DHT22;7364;50.870;4.722;2022-12-20T00:15:06;12.40;99.90
14555;DHT22;7364;50.870;4.722;2022-12-20T00:17:33;12.40;99.90
14555;DHT22;7364;50.870;4.722;2022-12-20T00:20:00;12.40;99.90
14555;DHT22;7364;50.870;4.722;2022-12-20T00:22:28;12.40;99.90
14555;DHT22;7364;50.870;4.722;2022-12-20T00:24:56;12.30;99.90
14555;DHT22;7364;50.870;4.722;2022-12-20T00:27:23;12.30;99.90
14555;DHT22;7364;50.870;4.722;2022-12-20T00:29:50;12.30;99.90
14555;DHT22;7364;50.870;4.722;2022-12-20T00:32:17;12.30;99.90
14555;DHT22;7364;50.870;4.722;2022-12-20T00:34:47;12.30;99.90
14555;DHT22;7364;50.870;4.722;2022-12-20T00:37:14;12.30;99.90
14555;DHT22;7364;50.870;4.722;2022-12-20T00:39:42;12.30;99.90
14555;DHT22;7364;50.870;4.722;2022-12-20T00:42:10;12.30;99.90
14555;DHT22;7364;50.870;4.722;2022-12-20T00:44:37;12.20;99.90
14555;DHT22;7364;50.870;4.722;2022-12-20T00:47:04;12.10;99.90
14555;DHT22;7364;50.870;4.722;2022-12-20T00:49:31;12.00;99.90
14555;DHT22;7364;50.870;4.722;2022-12-20T00:51:58;11.90;99.90
14555;DHT22;7364;50.870;4.722;2022-12-20T00:54:26;11.90;99.90
14555;DHT22;7364;50.870;4.722;2022-12-20T00:56:55;11.90;99.90
14555;DHT22;7364;50.870;4.722;2022-12-20T00:59:23;11.90;99.90
14555;DHT22;7364;50.870;4.722;2022-12-20T01:01:50;11.80;99.90
14555;DHT22;7364;50.870;4.722;2022-12-20T01:04:18;11.80;99.90
14555;DHT22;7364;50.870;4.722;2022-12-20T01:06:45;11.80;99.90
14555;DHT22;7364;50.870;4.722;2022-12-20T01:09:12;11.80;99.90
14555;DHT22;7364;50.870;4.722;2022-12-20T01:11:43;11.70;99.90
14555;DHT22;7364;50.870;4.722;2022-12-20T01:14:14;11.70;99.90
14555;DHT22;7364;50.870;4.722;2022-12-20T01:16:43;11.70;99.90
14555;DHT22;7364;50.870;4.722;2022-12-20T01:19:11;11.70;99.90
14555;DHT22;7364;50.870;4.722;2022-12-20T01:21:40;11.70;99.90
14555;DHT22;7364;50.870;4.722;2022-12-20T01:24:09;11.70;99.90
14555;DHT22;7364;50.870;4.722;2022-12-20T01:26:36;11.60;99.90
14555;DHT22;7364;50.870;4.722;2022-12-20T01:29:04;11.60;99.90
14555;DHT22;7364;50.870;4.722;2022-12-20T01:31:32;11.60;99.90
14555;DHT22;7364;50.870;4.722;2022-12-20T01:34:00;11.60;99.90
14555;DHT22;7364;50.870;4.722;2022-12-20T01:36:30;11.60;99.90
14555;DHT22;7364;50.870;4.722;2022-12-20T01:38:58;11.60;99.90
14555;DHT22;7364;50.870;4.722;2022-12-20T01:41:26;11.60;99.90
14555;DHT22;7364;50.870;4.722;2022-12-20T01:43:56;11.60;99.90
14555;DHT22;7364;50.870;4.722;2022-12-20T01:46:25;11.60;99.90
14555;DHT22;7364;50.870;4.722;2022-12-20T01:49:00;11.60;99.90
14555;DHT22;7364;50.870;4.722;2022-12-20T01:51:35;11.60;99.90
14555;DHT22;7364;50.870;4.722;2022-12-20T01:54:05;11.60;99.90
14555;DHT22;7364;50.870;4.722;2022-12-20T01:56:37;11.50;99.90
14555;DHT22;7364;50.870;4.722;2022-12-20T01:59:06;11.50;99.90
14555;DHT22;7364;50.870;4.722;2022-12-20T02:01:34;11.50;99.90
14555;DHT22;7364;50.870;4.722;2022-12-20T02:04:02;11.50;99.90
14555;DHT22;7364;50.870;4.722;2022-12-20T02:06:30;11.50;99.90
14555;DHT22;7364;50.870;4.722;2022-12-20T02:08:59;11.60;99.90
14555;DHT22;7364;50.870;4.722;2022-12-20T02:11:49;11.60;99.90
14555;DHT22;7364;50.870;4.722;2022-12-20T02:14:35;11.70;99.90
14555;DHT22;7364;50.870;4.722;2022-12-20T02:17:15;11.70;99.90
14555;DHT22;7364;50.870;4.722;2022-12-20T02:20:09;11.70;99.90
14555;DHT22;7364;50.870;4.722;2022-12-20T02:22:54;11.70;99.90
14555;DHT22;7364;50.870;4.722;2022-12-20T02:25:42;11.70;99.90
14555;DHT22;7364;50.870;4.722;2022-12-20T02:28:30;11.80;99.90
14555;DHT22;7364;50.870;4.722;2022-12-20T02:31:12;11.80;99.90
14555;DHT22;7364;50.870;4.722;2022-12-20T02:33:41;11.80;99.90
14555;DHT22;7364;50.870;4.722;2022-12-20T02:36:09;11.80;99.90
14555;DHT22;7364;50.870;4.722;2022-12-20T02:38:37;11.70;99.90
14555;DHT22;7364;50.870;4.722;2022-12-20T02:41:07;11.80;99.90
14555;DHT22;7364;50.870;4.722;2022-12-20T02:43:39;11.80;99.90
14555;DHT22;7364;50.870;4.722;2022-12-20T02:46:27;11.80;99.90
14555;DHT22;7364;50.870;4.722;2022-12-20T02:48:58;11.80;99.90
14555;DHT22;7364;50.870;4.722;2022-12-20T02:51:28;11.80;99.90
14555;DHT22;7364;50.870;4.722;2022-12-20T02:53:56;11.70;99.90
14555;DHT22;7364;50.870;4.722;2022-12-20T02:56:27;11.80;99.90
14555;DHT22;7364;50.870;4.722;2022-12-20T02:59:04;11.70;99.90
14555;DHT22;7364;50.870;4.722;2022-12-20T03:01:38;11.70;99.90
14555;DHT22;7364;50.870;4.722;2022-12-20T03:04:07;11.70;99.90
14555;DHT22;7364;50.870;4.722;2022-12-20T03:06:34;11.80;99.90
14555;DHT22;7364;50.870;4.722;2022-12-20T03:09:02;11.70;99.90
14555;DHT22;7364;50.870;4.722;2022-12-20T03:11:29;11.80;99.90
14555;DHT22;7364;50.870;4.722;2022-12-20T03:13:56;11.70;99.90
14555;DHT22;7364;50.870;4.722;2022-12-20T03:16:24;11.70;99.90
14555;DHT22;7364;50.870;4.722;2022-12-20T03:18:52;11.70;99.90
14555;DHT22;7364;50.870;4.722;2022-12-20T03:21:19;11.70;99.90
14555;DHT22;7364;50.870;4.722;2022-12-20T03:23:47;11.80;99.90
14555;DHT22;7364;50.870;4.722;2022-12-20T03:26:14;11.80;99.90
14555;DHT22;7364;50.870;4.722;2022-12-20T03:28:41;11.70;99.90
14555;DHT22;7364;50.870;4.722;2022-12-20T03:31:09;11.80;99.90
14555;DHT22;7364;50.870;4.722;2022-12-20T03:33:36;11.80;99.90
14555;DHT22;7364;50.870;4.722;2022-12-20T03:36:05;11.80;99.90
14555;DHT22;7364;50.870;4.722;2022-12-20T03:38:33;11.80;99.90
14555;DHT22;7364;50.870;4.722;2022-12-20T03:41:00;11.80;99.90
14555;DHT22;7364;50.870;4.722;2022-12-20T03:43:27;11.90;99.90
14555;DHT22;7364;50.870;4.722;2022-12-20T03:45:54;11.90;99.90
14555;DHT22;7364;50.870;4.722;2022-12-20T03:48:22;11.90;99.90
14555;DHT22;7364;50.870;4.722;2022-12-20T03:50:49;11.80;99.90
14555;DHT22;7364;50.870;4.722;2022-12-20T03:53:18;11.80;99.90
14555;DHT22;7364;50.870;4.722;2022-12-20T03:55:45;11.80;99.90
14555;DHT22;7364;50.870;4.722;2022-12-20T03:58:13;11.70;99.90
14555;DHT22;7364;50.870;4.722;2022-12-20T04:00:40;11.70;99.90
14555;DHT22;7364;50.870;4.722;2022-12-20T04:03:10;11.60;99.90
14555;DHT22;7364;50.870;4.722;2022-12-20T04:05:38;11.50;99.90
14555;DHT22;7364;50.870;4.722;2022-12-20T04:08:05;11.40;99.90
14555;DHT22;7364;50.870;4.722;2022-12-20T04:10:34;11.30;99.90
14555;DHT22;7364;50.870;4.722;2022-12-20T04:13:22;11.30;99.90
14555;DHT22;7364;50.870;4.722;2022-12-20T04:15:49;11.40;99.90
14555;DHT22;7364;50.870;4.722;2022-12-20T04:18:16;11.40;99.90
14555;DHT22;7364;50.870;4.722;2022-12-20T04:20:45;11.40;99.90
14555;DHT22;7364;50.870;4.722;2022-12-20T04:23:18;11.30;99.90
14555;DHT22;7364;50.870;4.722;2022-12-20T04:25:47;11.30;99.90
14555;DHT22;7364;50.870;4.722;2022-12-20T04:28:14;11.30;99.90
14555;DHT22;7364;50.870;4.722;2022-12-20T04:30:41;11.30;99.90
14555;DHT22;7364;50.870;4.722;2022-12-20T04:33:09;11.30;99.90
14555;DHT22;7364;50.870;4.722;2022-12-20T04:35:36;11.40;99.90
14555;DHT22;7364;50.870;4.722;2022-12-20T04:38:03;11.40;99.90
14555;DHT22;7364;50.870;4.722;2022-12-20T04:40:31;11.40;99.90
14555;DHT22;7364;50.870;4.722;2022-12-20T04:43:00;11.40;99.90
14555;DHT22;7364;50.870;4.722;2022-12-20T04:45:27;11.40;99.90
14555;DHT22;7364;50.870;4.722;2022-12-20T04:47:55;11.50;99.90
14555;DHT22;7364;50.870;4.722;2022-12-20T04:50:22;11.50;99.90
14555;DHT22;7364;50.870;4.722;2022-12-20T04:52:50;11.50;99.90
14555;DHT22;7364;50.870;4.722;2022-12-20T04:55:36;11.50;99.90
14555;DHT22;7364;50.870;4.722;2022-12-20T04:58:05;11.50;99.90
14555;DHT22;7364;50.870;4.722;2022-12-20T05:00:33;11.50;99.90
14555;DHT22;7364;50.870;4.722;2022-12-20T05:03:01;11.50;99.90
14555;DHT22;7364;50.870;4.722;2022-12-20T05:05:28;11.50;99.90
14555;DHT22;7364;50.870;4.722;2022-12-20T05:07:56;11.50;99.90
14555;DHT22;7364;50.870;4.722;2022-12-20T05:10:23;11.50;99.90
14555;DHT22;7364;50.870;4.722;2022-12-20T05:12:50;11.50;99.90
14555;DHT22;7364;50.870;4.722;2022-12-20T05:15:19;11.60;99.90
14555;DHT22;7364;50.870;4.722;2022-12-20T05:17:47;11.60;99.90
14555;DHT22;7364;50.870;4.722;2022-12-20T05:20:14;11.60;99.90
14555;DHT22;7364;50.870;4.722;2022-12-20T05:22:41;11.50;99.90
14555;DHT22;7364;50.870;4.722;2022-12-20T05:25:26;11.60;99.90
14555;DHT22;7364;50.870;4.722;2022-12-20T05:28:10;11.50;99.90
14555;DHT22;7364;50.870;4.722;2022-12-20T05:30:39;11.60;99.90
14555;DHT22;7364;50.870;4.722;2022-12-20T05:33:06;11.60;99.90
14555;DHT22;7364;50.870;4.722;2022-12-20T05:35:33;11.50;99.90
14555;DHT22;7364;50.870;4.722;2022-12-20T05:38:00;11.60;99.90
14555;DHT22;7364;50.870;4.722;2022-12-20T05:40:28;11.50;99.90
14555;DHT22;7364;50.870;4.722;2022-12-20T05:42:55;11.50;99.90
14555;DHT22;7364;50.870;4.722;2022-12-20T05:45:22;11.50;99.90
14555;DHT22;7364;50.870;4.722;2022-12-20T05:47:51;11.50;99.90
14555;DHT22;7364;50.870;4.722;2022-12-20T05:50:18;11.50;99.90
14555;DHT22;7364;50.870;4.722;2022-12-20T05:52:47;11.50;99.90
14555;DHT22;7364;50.870;4.722;2022-12-20T05:55:14;11.50;99.90
14555;DHT22;7364;50.870;4.722;2022-12-20T05:57:41;11.50;99.90
14555;DHT22;7364;50.870;4.722;2022-12-20T06:00:10;11.50;99.90
14555;DHT22;7364;50.870;4.722;2022-12-20T06:02:38;11.40;99.90
14555;DHT22;7364;50.870;4.722;2022-12-20T06:05:07;11.40;99.90
14555;DHT22;7364;50.870;4.722;2022-12-20T06:07:35;11.40;99.90
14555;DHT22;7364;50.870;4.722;2022-12-20T06:10:02;11.40;99.90
14555;DHT22;7364;50.870;4.722;2022-12-20T06:12:29;11.50;99.90
14555;DHT22;7364;50.870;4.722;2022-12-20T06:14:57;11.50;99.90
14555;DHT22;7364;50.870;4.722;2022-12-20T06:17:24;11.50;99.90
14555;DHT22;7364;50.870;4.722;2022-12-20T06:19:51;11.40;99.90
14555;DHT22;7364;50.870;4.722;2022-12-20T06:22:20;11.40;99.90
14555;DHT22;7364;50.870;4.722;2022-12-20T06:24:47;11.40;99.90
14555;DHT22;7364;50.870;4.722;2022-12-20T06:27:15;11.40;99.90
14555;DHT22;7364;50.870;4.722;2022-12-20T06:29:43;11.40;99.90
14555;DHT22;7364;50.870;4.722;2022-12-20T06:32:17;11.40;99.90
14555;DHT22;7364;50.870;4.722;2022-12-20T06:34:45;11.40;99.90
14555;DHT22;7364;50.870;4.722;2022-12-20T06:37:12;11.50;99.90
14555;DHT22;7364;50.870;4.722;2022-12-20T06:39:41;11.50;99.90
14555;DHT22;7364;50.870;4.722;2022-12-20T06:42:08;11.50;99.90
14555;DHT22;7364;50.870;4.722;2022-12-20T06:44:35;11.60;99.90
14555;DHT22;7364;50.870;4.722;2022-12-20T06:47:02;11.60;99.90
14555;DHT22;7364;50.870;4.722;2022-12-20T06:49:30;11.70;99.90
14555;DHT22;7364;50.870;4.722;2022-12-20T06:51:57;11.70;99.90
14555;DHT22;7364;50.870;4.722;2022-12-20T06:54:24;11.70;99.90
14555;DHT22;7364;50.870;4.722;2022-12-20T06:56:53;11.70;99.90
14555;DHT22;7364;50.870;4.722;2022-12-20T06:59:20;11.70;99.90
14555;DHT22;7364;50.870;4.722;2022-12-20T07:01:47;11.70;99.90
14555;DHT22;7364;50.870;4.722;2022-12-20T07:04:15;11.80;99.90
14555;DHT22;7364;50.870;4.722;2022-12-20T07:06:43;11.80;99.90
14555;DHT22;7364;50.870;4.722;2022-12-20T07:09:10;12.00;99.90
14555;DHT22;7364;50.870;4.722;2022-12-20T07:11:37;11.90;99.90
14555;DHT22;7364;50.870;4.722;2022-12-20T07:14:08;11.90;99.90
14555;DHT22;7364;50.870;4.722;2022-12-20T07:16:36;11.90;99.90
14555;DHT22;7364;50.870;4.722;2022-12-20T07:19:03;11.90;99.90
14555;DHT22;7364;50.870;4.722;2022-12-20T07:21:31;11.80;99.90
14555;DHT22;7364;50.870;4.722;2022-12-20T07:24:01;11.80;99.90
14555;DHT22;7364;50.870;4.722;2022-12-20T07:26:28;11.80;99.90
14555;DHT22;7364;50.870;4.722;2022-12-20T07:28:55;11.80;99.90
14555;DHT22;7364;50.870;4.722;2022-12-20T07:31:24;11.80;99.90
14555;DHT22;7364;50.870;4.722;2022-12-20T07:33:51;11.80;99.90
14555;DHT22;7364;50.870;4.722;2022-12-20T07:36:19;11.70;99.90
14555;DHT22;7364;50.870;4.722;2022-12-20T07:38:46;11.70;99.90
14555;DHT22;7364;50.870;4.722;2022-12-20T07:41:15;11.70;99.90
14555;DHT22;7364;50.870;4.722;2022-12-20T07:43:43;11.70;99.90
14555;DHT22;7364;50.870;4.722;2022-12-20T07:46:12;11.70;99.90
14555;DHT22;7364;50.870;4.722;2022-12-20T07:48:42;11.60;99.90
14555;DHT22;7364;50.870;4.722;2022-12-20T07:51:12;11.50;99.90
14555;DHT22;7364;50.870;4.722;2022-12-20T07:53:44;11.50;99.90
14555;DHT22;7364;50.870;4.722;2022-12-20T07:56:13;11.40;99.90
14555;DHT22;7364;50.870;4.722;2022-12-20T07:58:42;11.40;99.90
14555;DHT22;7364;50.870;4.722;2022-12-20T08:01:10;11.30;99.90
14555;DHT22;7364;50.870;4.722;2022-12-20T08:03:44;11.30;99.90
14555;DHT22;7364;50.870;4.722;2022-12-20T08:06:14;11.30;99.90
14555;DHT22;7364;50.870;4.722;2022-12-20T08:08:45;11.20;99.90
14555;DHT22;7364;50.870;4.722;2022-12-20T08:11:14;11.20;99.90
14555;DHT22;7364;50.870;4.722;2022-12-20T08:13:42;11.10;99.90
14555;DHT22;7364;50.870;4.722;2022-12-20T08:16:09;11.10;99.90
14555;DHT22;7364;50.870;4.722;2022-12-20T08:18:38;11.00;99.90
14555;DHT22;7364;50.870;4.722;2022-12-20T08:21:07;11.00;99.90
14555;DHT22;7364;50.870;4.722;2022-12-20T08:23:35;11.00;99.90
14555;DHT22;7364;50.870;4.722;2022-12-20T08:26:02;11.10;99.90
14555;DHT22;7364;50.870;4.722;2022-12-20T08:28:30;11.00;99.90
14555;DHT22;7364;50.870;4.722;2022-12-20T08:31:02;11.10;99.90
14555;DHT22;7364;50.870;4.722;2022-12-20T08:33:30;11.10;99.90
14555;DHT22;7364;50.870;4.722;2022-12-20T08:35:58;11.10;99.90
14555;DHT22;7364;50.870;4.722;2022-12-20T08:38:29;11.10;99.90
14555;DHT22;7364;50.870;4.722;2022-12-20T08:41:01;11.10;99.90
14555;DHT22;7364;50.870;4.722;2022-12-20T08:43:30;11.10;99.90
14555;DHT22;7364;50.870;4.722;2022-12-20T08:45:57;11.20;99.90
14555;DHT22;7364;50.870;4.722;2022-12-20T08:48:26;11.20;99.90
14555;DHT22;7364;50.870;4.722;2022-12-20T08:50:54;11.20;99.90
14555;DHT22;7364;50.870;4.722;2022-12-20T08:53:22;11.10;99.90
14555;DHT22;7364;50.870;4.722;2022-12-20T08:55:51;11.20;99.90
14555;DHT22;7364;50.870;4.722;2022-12-20T08:58:19;11.20;99.90
14555;DHT22;7364;50.870;4.722;2022-12-20T09:00:46;11.30;99.90
14555;DHT22;7364;50.870;4.722;2022-12-20T09:03:14;11.20;99.90
14555;DHT22;7364;50.870;4.722;2022-12-20T09:05:45;11.30;99.90
14555;DHT22;7364;50.870;4.722;2022-12-20T09:08:14;11.30;99.90
14555;DHT22;7364;50.870;4.722;2022-12-20T09:10:41;11.30;99.90
14555;DHT22;7364;50.870;4.722;2022-12-20T09:13:14;11.40;99.90
14555;DHT22;7364;50.870;4.722;2022-12-20T09:15:41;11.40;99.90
14555;DHT22;7364;50.870;4.722;2022-12-20T09:18:10;11.40;99.90
14555;DHT22;7364;50.870;4.722;2022-12-20T09:20:42;11.50;99.90
14555;DHT22;7364;50.870;4.722;2022-12-20T09:23:10;11.60;99.90
14555;DHT22;7364;50.870;4.722;2022-12-20T09:25:38;11.60;99.90
14555;DHT22;7364;50.870;4.722;2022-12-20T09:28:05;11.60;99.90
14555;DHT22;7364;50.870;4.722;2022-12-20T09:30:33;11.60;99.90
14555;DHT22;7364;50.870;4.722;2022-12-20T09:33:01;11.60;99.90
14555;DHT22;7364;50.870;4.722;2022-12-20T09:35:28;11.60;99.90
14555;DHT22;7364;50.870;4.722;2022-12-20T09:37:58;11.60;99.90
14555;DHT22;7364;50.870;4.722;2022-12-20T09:40:29;11.60;99.90
14555;DHT22;7364;50.870;4.722;2022-12-20T09:42:57;11.70;99.90
14555;DHT22;7364;50.870;4.722;2022-12-20T09:45:27;11.70;99.90
14555;DHT22;7364;50.870;4.722;2022-12-20T09:47:57;11.70;99.90
14555;DHT22;7364;50.870;4.722;2022-12-20T09:50:36;11.70;99.90
14555;DHT22;7364;50.870;4.722;2022-12-20T09:53:17;11.70;99.90
14555;DHT22;7364;50.870;4.722;2022-12-20T09:55:54;11.60;99.90
14555;DHT22;7364;50.870;4.722;2022-12-20T09:58:40;11.60;99.90
14555;DHT22;7364;50.870;4.722;2022-12-20T10:01:16;11.60;99.90
14555;DHT22;7364;50.870;4.722;2022-12-20T10:03:45;11.50;99.90
14555;DHT22;7364;50.870;4.722;2022-12-20T10:06:19;11.50;99.90
14555;DHT22;7364;50.870;4.722;2022-12-20T10:08:53;11.50;99.90
14555;DHT22;7364;50.870;4.722;2022-12-20T10:11:42;11.50;99.90
14555;DHT22;7364;50.870;4.722;2022-12-20T10:14:27;11.50;99.90
14555;DHT22;7364;50.870;4.722;2022-12-20T10:17:03;11.40;99.90
14555;DHT22;7364;50.870;4.722;2022-12-20T10:19:51;11.50;99.90
14555;DHT22;7364;50.870;4.722;2022-12-20T10:22:25;11.50;99.90
14555;DHT22;7364;50.870;4.722;2022-12-20T10:25:05;11.50;99.90
14555;DHT22;7364;50.870;4.722;2022-12-20T10:27:40;11.50;99.90
14555;DHT22;7364;50.870;4.722;2022-12-20T10:30:14;11.50;99.90
14555;DHT22;7364;50.870;4.722;2022-12-20T10:32:45;11.50;99.90
14555;DHT22;7364;50.870;4.722;2022-12-20T10:35:26;11.50;99.90
14555;DHT22;7364;50.870;4.722;2022-12-20T10:37:59;11.50;99.90
14555;DHT22;7364;50.870;4.722;2022-12-20T10:40:29;11.50;99.90
14555;DHT22;7364;50.870;4.722;2022-12-20T10:42:58;11.60;99.90
14555;DHT22;7364;50.870;4.722;2022-12-20T10:45:34;11.60;99.90
14555;DHT22;7364;50.870;4.722;2022-12-20T10:48:04;11.60;99.90
14555;DHT22;7364;50.870;4.722;2022-12-20T10:50:34;11.70;99.90
14555;DHT22;7364;50.870;4.722;2022-12-20T10:53:21;11.70;99.90
14555;DHT22;7364;50.870;4.722;2022-12-20T10:55:50;11.70;99.90
14555;DHT22;7364;50.870;4.722;2022-12-20T10:58:27;11.70;99.90
14555;DHT22;7364;50.870;4.722;2022-12-20T11:01:04;11.70;99.90
14555;DHT22;7364;50.870;4.722;2022-12-20T11:03:33;11.70;99.90
14555;DHT22;7364;50.870;4.722;2022-12-20T11:06:20;11.60;99.90
14555;DHT22;7364;50.870;4.722;2022-12-20T11:08:48;11.70;99.90
14555;DHT22;7364;50.870;4.722;2022-12-20T11:11:18;11.60;99.90
14555;DHT22;7364;50.870;4.722;2022-12-20T11:13:47;11.50;99.90
14555;DHT22;7364;50.870;4.722;2022-12-20T11:16:34;11.50;99.90
14555;DHT22;7364;50.870;4.722;2022-12-20T11:19:20;11.60;99.90
14555;DHT22;7364;50.870;4.722;2022-12-20T11:22:00;11.50;99.90
14555;DHT22;7364;50.870;4.722;2022-12-20T11:24:34;11.50;99.90
14555;DHT22;7364;50.870;4.722;2022-12-20T11:27:13;11.40;99.90
14555;DHT22;7364;50.870;4.722;2022-12-20T11:30:01;11.50;99.90
14555;DHT22;7364;50.870;4.722;2022-12-20T11:35:27;11.40;99.90
14555;DHT22;7364;50.870;4.722;2022-12-20T11:38:06;11.50;99.90
14555;DHT22;7364;50.870;4.722;2022-12-20T11:40:42;11.50;99.90
14555;DHT22;7364;50.870;4.722;2022-12-20T11:43:25;11.50;99.90
14555;DHT22;7364;50.870;4.722;2022-12-20T11:46:07;11.50;99.90
14555;DHT22;7364;50.870;4.722;2022-12-20T11:48:52;11.50;99.90
14555;DHT22;7364;50.870;4.722;2022-12-20T11:51:23;11.50;99.90
14555;DHT22;7364;50.870;4.722;2022-12-20T11:54:01;11.50;99.90
14555;DHT22;7364;50.870;4.722;2022-12-20T11:56:32;11.50;99.90
14555;DHT22;7364;50.870;4.722;2022-12-20T11:59:04;11.50;99.90
14555;DHT22;7364;50.870;4.722;2022-12-20T12:01:37;11.50;99.90
14555;DHT22;7364;50.870;4.722;2022-12-20T12:04:12;11.50;99.90
14555;DHT22;7364;50.870;4.722;2022-12-20T12:06:42;11.40;99.90
14555;DHT22;7364;50.870;4.722;2022-12-20T12:09:21;11.40;99.90
14555;DHT22;7364;50.870;4.722;2022-12-20T12:11:53;11.30;99.90
14555;DHT22;7364;50.870;4.722;2022-12-20T12:14:30;11.40;99.90
14555;DHT22;7364;50.870;4.722;2022-12-20T12:17:06;11.40;99.90
14555;DHT22;7364;50.870;4.722;2022-12-20T12:19:36;11.40;99.90
14555;DHT22;7364;50.870;4.722;2022-12-20T12:22:11;11.30;99.90
14555;DHT22;7364;50.870;4.722;2022-12-20T12:24:47;11.40;99.90
14555;DHT22;7364;50.870;4.722;2022-12-20T12:27:21;11.30;99.90
14555;DHT22;7364;50.870;4.722;2022-12-20T12:29:50;11.20;99.90
14555;DHT22;7364;50.870;4.722;2022-12-20T12:32:25;11.20;99.90
14555;DHT22;7364;50.870;4.722;2022-12-20T12:35:10;11.10;99.90
14555;DHT22;7364;50.870;4.722;2022-12-20T12:38:15;11.10;99.90
14555;DHT22;7364;50.870;4.722;2022-12-20T12:41:11;11.00;99.90
14555;DHT22;7364;50.870;4.722;2022-12-20T12:43:46;11.00;99.90
14555;DHT22;7364;50.870;4.722;2022-12-20T12:46:17;11.00;99.90
14555;DHT22;7364;50.870;4.722;2022-12-20T12:48:50;10.90;99.90
14555;DHT22;7364;50.870;4.722;2022-12-20T12:51:23;10.90;99.90
14555;DHT22;7364;50.870;4.722;2022-12-20T12:53:53;10.90;99.90
14555;DHT22;7364;50.870;4.722;2022-12-20T12:56:59;10.80;99.90
14555;DHT22;7364;50.870;4.722;2022-12-20T12:59:49;10.80;99.90
14555;DHT22;7364;50.870;4.722;2022-12-20T13:02:50;10.80;99.90
14555;DHT22;7364;50.870;4.722;2022-12-20T13:05:34;10.70;99.90
14555;DHT22;7364;50.870;4.722;2022-12-20T13:08:02;10.80;99.90
14555;DHT22;7364;50.870;4.722;2022-12-20T13:11:01;10.80;99.90
14555;DHT22;7364;50.870;4.722;2022-12-20T13:13:30;10.70;99.90
14555;DHT22;7364;50.870;4.722;2022-12-20T13:16:09;10.70;99.90
14555;DHT22;7364;50.870;4.722;2022-12-20T13:18:37;10.60;99.90
14555;DHT22;7364;50.870;4.722;2022-12-20T13:21:27;10.70;99.90
14555;DHT22;7364;50.870;4.722;2022-12-20T13:27:13;10.70;99.90
14555;DHT22;7364;50.870;4.722;2022-12-20T13:36:04;10.70;99.90
14555;DHT22;7364;50.870;4.722;2022-12-20T13:38:55;10.70;99.90
14555;DHT22;7364;50.870;4.722;2022-12-20T13:41:31;10.70;99.90
14555;DHT22;7364;50.870;4.722;2022-12-20T13:44:09;10.70;99.90
14555;DHT22;7364;50.870;4.722;2022-12-20T13:46:48;10.80;99.90
14555;DHT22;7364;50.870;4.722;2022-12-20T13:49:22;10.70;99.90
14555;DHT22;7364;50.870;4.722;2022-12-20T13:52:16;10.70;99.90
14555;DHT22;7364;50.870;4.722;2022-12-20T13:54:51;10.60;99.90
14555;DHT22;7364;50.870;4.722;2022-12-20T13:57:28;10.70;99.90
14555;DHT22;7364;50.870;4.722;2022-12-20T13:59:58;10.70;99.90
14555;DHT22;7364;50.870;4.722;2022-12-20T14:02:32;10.90;99.90
14555;DHT22;7364;50.870;4.722;2022-12-20T14:05:03;11.00;99.90
14555;DHT22;7364;50.870;4.722;2022-12-20T14:07:33;11.00;99.90
14555;DHT22;7364;50.870;4.722;2022-12-20T14:10:15;11.00;99.90
14555;DHT22;7364;50.870;4.722;2022-12-20T14:12:44;11.10;99.90
14555;DHT22;7364;50.870;4.722;2022-12-20T14:15:24;11.10;99.90
14555;DHT22;7364;50.870;4.722;2022-12-20T14:17:54;11.00;99.90
14555;DHT22;7364;50.870;4.722;2022-12-20T14:20:24;11.00;99.90
14555;DHT22;7364;50.870;4.722;2022-12-20T14:22:55;11.00;99.90
14555;DHT22;7364;50.870;4.722;2022-12-20T14:25:33;11.00;99.90
14555;DHT22;7364;50.870;4.722;2022-12-20T14:28:01;10.90;99.90
14555;DHT22;7364;50.870;4.722;2022-12-20T14:30:32;10.90;99.90
14555;DHT22;7364;50.870;4.722;2022-12-20T14:33:02;11.00;99.90
14555;DHT22;7364;50.870;4.722;2022-12-20T14:35:30;11.00;99.90
14555;DHT22;7364;50.870;4.722;2022-12-20T14:37:59;10.90;99.90
14555;DHT22;7364;50.870;4.722;2022-12-20T14:40:28;10.90;99.90
14555;DHT22;7364;50.870;4.722;2022-12-20T14:42:56;10.90;99.90
14555;DHT22;7364;50.870;4.722;2022-12-20T14:45:26;10.90;99.90
14555;DHT22;7364;50.870;4.722;2022-12-20T14:47:56;10.90;99.90
14555;DHT22;7364;50.870;4.722;2022-12-20T14:50:31;10.90;99.90
14555;DHT22;7364;50.870;4.722;2022-12-20T14:53:00;10.90;99.90
14555;DHT22;7364;50.870;4.722;2022-12-20T14:55:36;10.90;99.90
14555;DHT22;7364;50.870;4.722;2022-12-20T14:58:25;10.80;99.90
14555;DHT22;7364;50.870;4.722;2022-12-20T15:00:58;10.80;99.90
14555;DHT22;7364;50.870;4.722;2022-12-20T15:03:27;10.80;99.90
14555;DHT22;7364;50.870;4.722;2022-12-20T15:05:57;10.80;99.90
14555;DHT22;7364;50.870;4.722;2022-12-20T15:08:27;10.90;99.90
14555;DHT22;7364;50.870;4.722;2022-12-20T15:11:00;10.90;99.90
14555;DHT22;7364;50.870;4.722;2022-12-20T15:13:33;10.90;99.90
14555;DHT22;7364;50.870;4.722;2022-12-20T15:16:01;10.90;99.90
14555;DHT22;7364;50.870;4.722;2022-12-20T15:18:29;10.80;99.90
14555;DHT22;7364;50.870;4.722;2022-12-20T15:21:02;10.80;99.90
14555;DHT22;7364;50.870;4.722;2022-12-20T15:23:31;10.80;99.90
14555;DHT22;7364;50.870;4.722;2022-12-20T15:25:59;10.70;99.90
14555;DHT22;7364;50.870;4.722;2022-12-20T15:28:27;10.70;99.90
14555;DHT22;7364;50.870;4.722;2022-12-20T15:30:54;10.70;99.90
14555;DHT22;7364;50.870;4.722;2022-12-20T15:33:24;10.80;99.90
14555;DHT22;7364;50.870;4.722;2022-12-20T15:35:52;10.80;99.90
14555;DHT22;7364;50.870;4.722;2022-12-20T15:38:25;10.70;99.90
14555;DHT22;7364;50.870;4.722;2022-12-20T15:40:56;10.70;99.90
14555;DHT22;7364;50.870;4.722;2022-12-20T15:43:37;10.70;99.90
14555;DHT22;7364;50.870;4.722;2022-12-20T15:46:05;10.70;99.90
14555;DHT22;7364;50.870;4.722;2022-12-20T15:48:33;10.80;99.90
14555;DHT22;7364;50.870;4.722;2022-12-20T15:51:00;10.80;99.90
14555;DHT22;7364;50.870;4.722;2022-12-20T15:53:32;10.90;99.90
14555;DHT22;7364;50.870;4.722;2022-12-20T15:56:00;10.80;99.90
14555;DHT22;7364;50.870;4.722;2022-12-20T15:58:30;10.70;99.90
14555;DHT22;7364;50.870;4.722;2022-12-20T16:00:59;10.70;99.90
14555;DHT22;7364;50.870;4.722;2022-12-20T16:03:30;10.70;99.90
14555;DHT22;7364;50.870;4.722;2022-12-20T16:05:58;10.70;99.90
14555;DHT22;7364;50.870;4.722;2022-12-20T16:08:25;10.70;99.90
14555;DHT22;7364;50.870;4.722;2022-12-20T16:10:55;10.70;99.90
14555;DHT22;7364;50.870;4.722;2022-12-20T16:13:24;10.70;99.90
14555;DHT22;7364;50.870;4.722;2022-12-20T16:15:52;10.70;99.90
14555;DHT22;7364;50.870;4.722;2022-12-20T16:18:19;10.80;99.90
14555;DHT22;7364;50.870;4.722;2022-12-20T16:20:46;10.70;99.90
14555;DHT22;7364;50.870;4.722;2022-12-20T16:23:18;10.70;99.90